createdAt,value
2018-09-29T00:00:51.594Z,10.79
2018-09-29T00:03:23.640Z,10.70
2018-09-29T00:05:55.750Z,10.65
2018-09-29T00:08:27.790Z,10.56
2018-09-29T00:10:59.837Z,10.49
2018-09-29T00:13:31.918Z,10.40
2018-09-29T00:16:03.985Z,10.41
2018-09-29T00:18:36.086Z,10.35
2018-09-29T00:21:08.172Z,10.34
2018-09-29T00:23:40.203Z,10.29
2018-09-29T00:26:12.248Z,10.22
2018-09-29T00:28:44.319Z,10.19
2018-09-29T00:31:16.389Z,10.13
2018-09-29T00:33:48.420Z,10.06
2018-09-29T00:36:20.446Z,9.99
2018-09-29T00:38:52.491Z,10.01
2018-09-29T00:41:24.579Z,9.89
2018-09-29T00:43:56.662Z,9.87
2018-09-29T00:46:28.736Z,9.85
2018-09-29T00:49:00.805Z,9.78
2018-09-29T00:51:32.866Z,9.76
2018-09-29T00:54:04.937Z,9.76
2018-09-29T00:56:36.984Z,9.70
2018-09-29T00:59:09.072Z,9.62
2018-09-29T01:01:41.160Z,9.49
2018-09-29T01:04:13.212Z,9.44
2018-09-29T01:06:45.263Z,9.28
2018-09-29T01:09:17.311Z,9.15
2018-09-29T01:11:49.361Z,8.94
2018-09-29T01:14:21.441Z,8.91
2018-09-29T01:16:53.832Z,8.88
2018-09-29T01:19:25.879Z,8.85
2018-09-29T01:21:57.940Z,8.72
2018-09-29T01:24:30.020Z,8.70
2018-09-29T01:27:02.115Z,8.76
2018-09-29T01:29:34.163Z,8.82
2018-09-29T01:32:06.215Z,8.71
2018-09-29T01:34:38.268Z,8.54
2018-09-29T01:37:10.311Z,8.43
2018-09-29T01:39:42.367Z,8.32
2018-09-29T01:42:14.410Z,8.31
2018-09-29T01:44:46.458Z,8.26
2018-09-29T01:47:18.472Z,7.98
2018-09-29T01:49:50.508Z,8.01
2018-09-29T01:52:22.528Z,7.74
2018-09-29T01:54:54.549Z,7.42
2018-09-29T01:57:26.583Z,7.25
2018-09-29T01:59:58.675Z,7.25
2018-09-29T02:02:30.728Z,7.21
2018-09-29T02:05:02.814Z,7.48
2018-09-29T02:07:34.818Z,7.66
2018-09-29T02:10:06.933Z,7.72
2018-09-29T02:12:38.962Z,7.68
2018-09-29T02:15:11.008Z,7.75
2018-09-29T02:17:43.039Z,7.73
2018-09-29T02:20:15.147Z,7.76
2018-09-29T02:22:47.225Z,7.82
2018-09-29T02:25:19.247Z,7.83
2018-09-29T02:27:51.342Z,7.87
2018-09-29T02:30:23.390Z,7.83
2018-09-29T02:32:55.414Z,7.73
2018-09-29T02:35:27.428Z,7.58
2018-09-29T02:37:59.483Z,7.61
2018-09-29T02:40:31.560Z,7.53
2018-09-29T02:43:03.640Z,7.43
2018-09-29T02:45:35.684Z,7.42
2018-09-29T02:48:07.735Z,7.49
2018-09-29T02:50:39.783Z,7.42
2018-09-29T02:53:11.808Z,7.36
2018-09-29T02:55:43.849Z,7.35
2018-09-29T02:58:15.866Z,7.34
2018-09-29T03:00:47.922Z,7.08
2018-09-29T03:03:19.963Z,7.09
2018-09-29T03:05:52.009Z,7.02
2018-09-29T03:08:24.114Z,6.98
2018-09-29T03:10:56.141Z,7.23
2018-09-29T03:13:28.176Z,7.08
2018-09-29T03:16:00.188Z,7.04
2018-09-29T03:18:32.247Z,7.03
2018-09-29T03:21:04.301Z,7.07
2018-09-29T03:23:36.404Z,7.04
2018-09-29T03:26:08.430Z,7.07
2018-09-29T03:28:40.510Z,7.04
2018-09-29T03:31:12.555Z,6.89
2018-09-29T03:33:44.605Z,6.73
2018-09-29T03:36:16.657Z,6.79
2018-09-29T03:38:48.764Z,6.66
2018-09-29T03:41:20.815Z,6.55
2018-09-29T03:43:52.875Z,6.39
2018-09-29T03:46:24.956Z,6.42
2018-09-29T03:48:57.176Z,6.32
2018-09-29T03:51:29.181Z,6.38
2018-09-29T03:54:01.251Z,6.28
2018-09-29T03:56:33.316Z,6.06
2018-09-29T03:59:05.456Z,6.06
2018-09-29T04:01:37.503Z,6.00
2018-09-29T04:04:09.535Z,5.80
2018-09-29T04:06:41.583Z,5.67
2018-09-29T04:09:13.639Z,5.56
2018-09-29T04:11:45.679Z,5.38
2018-09-29T04:14:17.711Z,5.48
2018-09-29T04:16:49.723Z,5.49
2018-09-29T04:19:21.771Z,5.45
2018-09-29T04:21:53.809Z,5.28
2018-09-29T04:24:25.827Z,5.13
2018-09-29T04:26:57.856Z,5.12
2018-09-29T04:29:29.902Z,5.05
2018-09-29T04:32:01.900Z,5.21
2018-09-29T04:34:33.907Z,5.35
2018-09-29T04:37:05.952Z,5.33
2018-09-29T04:39:38.057Z,5.25
2018-09-29T04:42:10.126Z,5.16
2018-09-29T04:44:42.161Z,5.06
2018-09-29T04:47:14.224Z,4.99
2018-09-29T04:49:46.275Z,5.12
2018-09-29T04:52:18.332Z,5.22
2018-09-29T04:54:50.409Z,5.20
2018-09-29T04:57:22.448Z,5.29
2018-09-29T04:59:54.505Z,5.18
2018-09-29T05:02:26.549Z,5.18
2018-09-29T05:04:58.622Z,5.16
2018-09-29T05:07:30.692Z,5.18
2018-09-29T05:10:02.815Z,5.35
2018-09-29T05:12:34.864Z,5.34
2018-09-29T05:15:06.925Z,5.51
2018-09-29T05:17:39.036Z,5.57
2018-09-29T05:20:11.114Z,5.52
2018-09-29T05:22:43.167Z,5.61
2018-09-29T05:25:15.395Z,5.65
2018-09-29T05:27:47.459Z,5.70
2018-09-29T05:30:19.539Z,5.84
2018-09-29T05:32:51.589Z,6.10
2018-09-29T05:35:23.737Z,6.16
2018-09-29T05:37:55.834Z,6.05
2018-09-29T05:40:27.929Z,6.10
2018-09-29T05:42:59.971Z,6.18
2018-09-29T05:45:32.016Z,6.26
2018-09-29T05:48:04.076Z,6.37
2018-09-29T05:50:36.159Z,6.43
2018-09-29T05:53:08.212Z,6.44
2018-09-29T05:55:40.305Z,6.45
2018-09-29T05:58:12.405Z,6.49
2018-09-29T06:00:44.594Z,6.64
2018-09-29T06:03:16.489Z,6.74
2018-09-29T06:05:48.620Z,6.83
2018-09-29T06:08:20.651Z,6.94
2018-09-29T06:10:52.720Z,7.00
2018-09-29T06:13:24.844Z,6.97
2018-09-29T06:15:56.974Z,6.99
2018-09-29T06:18:29.023Z,7.08
2018-09-29T06:21:01.168Z,7.12
2018-09-29T06:23:33.124Z,7.15
2018-09-29T06:26:05.264Z,7.18
2018-09-29T06:28:37.307Z,7.27
2018-09-29T06:31:09.356Z,7.37
2018-09-29T06:33:41.614Z,7.47
2018-09-29T06:36:13.712Z,7.58
2018-09-29T06:38:45.750Z,7.72
2018-09-29T06:41:17.803Z,7.86
2018-09-29T06:43:49.871Z,7.95
2018-09-29T06:46:21.934Z,8.08
2018-09-29T06:48:53.984Z,8.17
2018-09-29T06:51:26.124Z,8.36
2018-09-29T06:53:58.191Z,8.41
2018-09-29T06:56:30.246Z,8.44
2018-09-29T06:59:02.321Z,8.57
2018-09-29T07:01:34.385Z,8.67
2018-09-29T07:04:06.452Z,8.89
2018-09-29T07:06:38.501Z,9.86
2018-09-29T07:09:11.847Z,11.26
2018-09-29T07:11:45.180Z,12.29
2018-09-29T07:14:17.243Z,13.19
2018-09-29T07:16:49.337Z,14.24
2018-09-29T07:19:21.374Z,15.34
2018-09-29T07:21:55.434Z,16.06
2018-09-29T07:24:27.482Z,16.03
2018-09-29T07:26:59.568Z,14.60
2018-09-29T07:29:31.635Z,14.58
2018-09-29T07:32:03.916Z,15.44
2018-09-29T07:34:36.062Z,15.22
2018-09-29T07:37:08.138Z,15.14
2018-09-29T07:39:40.240Z,15.21
2018-09-29T07:42:12.352Z,15.33
2018-09-29T07:44:44.495Z,15.41
2018-09-29T07:47:16.503Z,16.32
2018-09-29T07:49:48.585Z,16.10
2018-09-29T07:52:20.658Z,15.04
2018-09-29T07:54:52.762Z,14.95
2018-09-29T07:57:24.795Z,15.55
2018-09-29T07:59:56.938Z,14.77
2018-09-29T08:02:29.015Z,15.43
2018-09-29T08:05:01.056Z,15.18
2018-09-29T08:07:33.215Z,15.08
2018-09-29T08:10:05.368Z,15.52
2018-09-29T08:12:37.489Z,15.43
2018-09-29T08:15:09.553Z,15.50
2018-09-29T08:17:41.612Z,15.39
2018-09-29T08:20:13.666Z,16.13
2018-09-29T08:22:45.800Z,16.67
2018-09-29T08:25:17.868Z,16.28
2018-09-29T08:27:49.994Z,15.42
2018-09-29T08:30:22.081Z,15.20
2018-09-29T08:32:54.143Z,16.04
2018-09-29T08:38:14.209Z,15.47
2018-09-29T08:40:46.347Z,15.32
2018-09-29T08:43:18.453Z,15.94
2018-09-29T08:45:50.484Z,15.63
2018-09-29T08:48:22.497Z,15.07
2018-09-29T08:50:54.564Z,15.35
2018-09-29T08:53:26.662Z,15.62
2018-09-29T08:55:58.704Z,15.37
2018-09-29T08:58:30.768Z,15.34
2018-09-29T09:01:02.824Z,15.96
2018-09-29T09:03:34.868Z,15.91
2018-09-29T09:06:06.947Z,16.35
2018-09-29T09:08:38.996Z,16.61
2018-09-29T09:11:11.153Z,16.35
2018-09-29T09:13:43.226Z,15.24
2018-09-29T09:16:15.290Z,15.30
2018-09-29T09:18:47.369Z,15.89
2018-09-29T09:21:19.442Z,15.63
2018-09-29T09:23:51.542Z,15.86
2018-09-29T09:26:23.627Z,15.94
2018-09-29T09:28:55.747Z,16.35
2018-09-29T09:31:27.876Z,16.39
2018-09-29T09:33:59.965Z,16.36
2018-09-29T09:36:32.036Z,15.90
2018-09-29T09:39:07.798Z,16.00
2018-09-29T09:41:40.114Z,16.23
2018-09-29T09:44:12.206Z,16.32
2018-09-29T09:46:44.328Z,16.08
2018-09-29T09:49:16.440Z,16.54
2018-09-29T09:51:49.270Z,16.14
2018-09-29T09:54:21.304Z,15.98
2018-09-29T09:56:53.390Z,15.51
2018-09-29T09:59:25.491Z,15.96
2018-09-29T10:02:03.244Z,15.50
2018-09-29T10:04:36.312Z,15.47
2018-09-29T10:07:08.372Z,15.84
2018-09-29T10:09:40.438Z,15.91
2018-09-29T10:12:12.534Z,16.29
2018-09-29T10:14:44.688Z,15.62
2018-09-29T10:17:16.730Z,16.16
2018-09-29T10:19:48.776Z,15.62
2018-09-29T10:22:21.296Z,15.77
2018-09-29T10:24:53.349Z,15.58
2018-09-29T10:27:25.408Z,15.86
2018-09-29T10:29:57.452Z,15.56
2018-09-29T10:32:29.491Z,15.86
2018-09-29T10:35:01.561Z,16.06
2018-09-29T10:37:33.607Z,16.02
2018-09-29T10:40:05.791Z,15.04
2018-09-29T10:42:37.868Z,15.84
2018-09-29T10:45:09.975Z,16.07
2018-09-29T10:47:42.132Z,15.99
2018-09-29T10:50:14.200Z,16.39
2018-09-29T10:52:46.219Z,15.84
2018-09-29T10:55:18.320Z,16.37
2018-09-29T10:57:50.372Z,16.33
2018-09-29T11:00:22.411Z,16.26
2018-09-29T11:02:54.649Z,16.27
2018-09-29T11:05:26.775Z,16.10
2018-09-29T11:07:59.085Z,15.87
2018-09-29T11:10:31.128Z,16.44
2018-09-29T11:13:03.194Z,16.96
2018-09-29T11:15:35.362Z,17.94
2018-09-29T11:18:07.386Z,17.99
2018-09-29T11:20:39.574Z,17.35
2018-09-29T11:23:11.628Z,17.15
2018-09-29T11:25:43.686Z,17.99
2018-09-29T11:28:15.936Z,17.82
2018-09-29T11:30:48.379Z,16.13
2018-09-29T11:33:20.467Z,16.87
2018-09-29T11:35:52.545Z,16.51
2018-09-29T11:38:25.152Z,16.49
2018-09-29T11:40:57.284Z,17.20
2018-09-29T11:43:29.315Z,17.16
2018-09-29T11:46:01.431Z,17.28
2018-09-29T11:48:33.528Z,16.46
2018-09-29T11:51:05.811Z,17.09
2018-09-29T11:53:37.878Z,17.45
2018-09-29T11:56:09.971Z,17.49
2018-09-29T11:58:41.976Z,17.26
2018-09-29T12:01:14.260Z,17.52
2018-09-29T12:03:46.411Z,17.97
2018-09-29T12:06:18.570Z,17.44
2018-09-29T12:08:50.531Z,16.80
2018-09-29T12:11:22.711Z,16.83
2018-09-29T12:13:54.814Z,16.84
2018-09-29T12:16:26.936Z,17.21
2018-09-29T12:18:59.200Z,17.32
2018-09-29T12:21:31.274Z,17.52
2018-09-29T12:24:03.321Z,17.69
2018-09-29T12:26:35.441Z,17.91
2018-09-29T12:29:07.483Z,17.67
2018-09-29T12:31:39.545Z,17.96
2018-09-29T12:34:11.687Z,17.68
2018-09-29T12:36:43.789Z,17.52
2018-09-29T12:39:15.907Z,17.43
2018-09-29T12:41:47.942Z,17.71
2018-09-29T12:44:19.996Z,17.88
2018-09-29T12:46:52.326Z,17.10
2018-09-29T12:49:24.419Z,17.12
2018-09-29T12:51:56.530Z,17.41
2018-09-29T12:54:28.771Z,17.24
2018-09-29T12:57:00.932Z,17.35
2018-09-29T12:59:33.060Z,17.49
2018-09-29T13:02:05.179Z,17.97
2018-09-29T13:04:37.248Z,18.76
2018-09-29T13:07:09.324Z,18.70
2018-09-29T13:09:41.475Z,18.81
2018-09-29T13:12:13.592Z,18.77
2018-09-29T13:14:45.676Z,19.09
2018-09-29T13:17:17.755Z,19.49
2018-09-29T13:19:49.807Z,19.49
2018-09-29T13:22:21.838Z,20.27
2018-09-29T13:24:53.877Z,20.17
2018-09-29T13:27:25.914Z,21.25
2018-09-29T13:29:57.975Z,21.20
2018-09-29T13:32:30.125Z,20.75
2018-09-29T13:35:02.183Z,19.80
2018-09-29T13:37:34.274Z,20.99
2018-09-29T13:40:06.572Z,21.03
2018-09-29T13:42:38.702Z,21.78
2018-09-29T13:45:10.723Z,21.81
2018-09-29T13:47:42.773Z,20.81
2018-09-29T13:50:14.876Z,20.59
2018-09-29T13:52:46.977Z,21.45
2018-09-29T13:55:19.047Z,22.64
2018-09-29T13:57:51.104Z,22.69
2018-09-29T14:00:23.158Z,22.53
2018-09-29T14:02:55.212Z,22.82
2018-09-29T14:05:27.341Z,22.60
2018-09-29T14:07:59.383Z,21.72
2018-09-29T14:10:31.416Z,23.67
2018-09-29T14:13:03.493Z,24.02
2018-09-29T14:15:35.651Z,23.12
2018-09-29T14:18:07.788Z,23.07
2018-09-29T14:20:39.936Z,23.13
2018-09-29T14:23:11.980Z,23.63
2018-09-29T14:25:44.024Z,24.28
2018-09-29T14:28:16.183Z,23.75
2018-09-29T14:30:48.262Z,23.95
2018-09-29T14:33:20.408Z,24.39
2018-09-29T14:35:52.464Z,24.63
2018-09-29T14:38:24.576Z,24.33
2018-09-29T14:40:56.706Z,24.26
2018-09-29T14:43:28.853Z,24.09
2018-09-29T14:46:00.896Z,23.66
2018-09-29T14:48:32.971Z,23.11
2018-09-29T14:51:05.090Z,22.71
2018-09-29T14:53:39.121Z,21.90
2018-09-29T14:56:11.197Z,20.25
2018-09-29T14:58:43.336Z,19.36
2018-09-29T15:01:15.404Z,18.42
2018-09-29T15:03:47.442Z,18.52
2018-09-29T15:06:19.465Z,18.50
2018-09-29T15:08:51.559Z,18.33
2018-09-29T15:11:23.678Z,17.11
2018-09-29T15:13:55.880Z,16.63
2018-09-29T15:16:28.076Z,16.28
2018-09-29T15:19:00.159Z,16.12
2018-09-29T15:21:32.249Z,16.00
2018-09-29T15:24:04.313Z,15.88
2018-09-29T15:26:36.360Z,15.87
2018-09-29T15:29:08.462Z,15.56
2018-09-29T15:31:40.524Z,15.49
2018-09-29T15:34:12.590Z,15.31
2018-09-29T15:36:45.175Z,15.29
2018-09-29T15:39:17.251Z,15.19
2018-09-29T15:41:49.312Z,15.11
2018-09-29T15:44:21.416Z,15.08
2018-09-29T15:46:53.513Z,15.04
2018-09-29T15:49:25.717Z,15.08
2018-09-29T15:51:58.421Z,15.09
2018-09-29T15:54:30.544Z,15.05
2018-09-29T15:57:02.579Z,14.92
2018-09-29T15:59:34.676Z,14.84
2018-09-29T16:02:06.752Z,14.74
2018-09-29T16:04:38.815Z,14.61
2018-09-29T16:07:10.993Z,14.58
2018-09-29T16:09:47.978Z,14.57
2018-09-29T16:12:20.213Z,14.40
2018-09-29T16:14:52.288Z,14.28
2018-09-29T16:17:24.450Z,14.10
2018-09-29T16:19:56.583Z,13.99
2018-09-29T16:22:28.656Z,13.97
2018-09-29T16:25:00.784Z,13.93
2018-09-29T16:27:33.422Z,13.80
2018-09-29T16:30:05.903Z,13.58
2018-09-29T16:32:37.943Z,13.60
2018-09-29T16:35:10.019Z,13.55
2018-09-29T16:37:42.046Z,13.47
2018-09-29T16:40:14.131Z,13.27
2018-09-29T16:42:46.204Z,13.23
2018-09-29T16:45:18.268Z,13.05
2018-09-29T16:47:50.892Z,12.91
2018-09-29T16:50:22.986Z,12.76
2018-09-29T16:52:55.053Z,12.55
2018-09-29T16:55:27.128Z,12.42
2018-09-29T16:57:59.209Z,12.43
2018-09-29T17:00:31.271Z,12.43
2018-09-29T17:03:04.362Z,12.12
2018-09-29T17:05:36.416Z,11.95
2018-09-29T17:08:08.470Z,11.71
2018-09-29T17:10:40.541Z,11.38
2018-09-29T17:13:12.634Z,11.19
2018-09-29T17:15:44.696Z,11.11
2018-09-29T17:18:16.727Z,11.29
2018-09-29T17:20:48.822Z,11.09
2018-09-29T17:23:20.950Z,11.01
2018-09-29T17:25:53.098Z,11.08
2018-09-29T17:28:26.155Z,11.12
2018-09-29T17:30:58.218Z,10.75
2018-09-29T17:33:30.327Z,10.77
2018-09-29T17:36:02.417Z,10.73
2018-09-29T17:38:35.141Z,10.50
2018-09-29T17:41:07.231Z,10.24
2018-09-29T17:43:39.299Z,10.29
2018-09-29T17:46:11.346Z,10.23
2018-09-29T17:48:43.544Z,10.09
2018-09-29T17:51:15.629Z,9.89
2018-09-29T17:53:47.938Z,9.95
2018-09-29T17:56:20.083Z,9.78
2018-09-29T17:58:52.187Z,9.89
2018-09-29T18:01:24.328Z,9.71
2018-09-29T18:03:56.422Z,9.71
2018-09-29T18:06:28.484Z,9.50
2018-09-29T18:09:00.600Z,9.44
2018-09-29T18:11:32.871Z,9.50
2018-09-29T18:14:04.987Z,9.40
2018-09-29T18:16:37.063Z,9.08
2018-09-29T18:19:09.155Z,9.20
2018-09-29T18:21:41.237Z,9.24
2018-09-29T18:24:13.339Z,9.28
2018-09-29T18:26:45.420Z,9.24
2018-09-29T18:29:17.571Z,9.04
2018-09-29T18:31:49.611Z,9.11
2018-09-29T18:34:21.641Z,9.17
2018-09-29T18:36:53.730Z,9.17
2018-09-29T18:39:25.888Z,9.18
2018-09-29T18:41:57.955Z,8.88
2018-09-29T18:44:30.047Z,9.05
2018-09-29T18:47:02.133Z,8.94
2018-09-29T18:49:34.224Z,8.92
2018-09-29T18:52:06.337Z,8.86
2018-09-29T18:54:38.400Z,8.83
2018-09-29T18:57:10.461Z,8.68
2018-09-29T18:59:42.559Z,8.52
2018-09-29T19:02:14.629Z,8.37
2018-09-29T19:04:46.747Z,8.44
2018-09-29T19:07:19.953Z,8.13
2018-09-29T19:09:52.028Z,8.21
2018-09-29T19:12:24.087Z,8.10
2018-09-29T19:14:56.136Z,8.11
2018-09-29T19:17:28.223Z,8.12
2018-09-29T19:20:00.314Z,8.17
2018-09-29T19:22:32.376Z,8.33
2018-09-29T19:25:04.499Z,8.05
2018-09-29T19:27:36.567Z,7.83
2018-09-29T19:30:08.628Z,7.96
2018-09-29T19:32:40.704Z,7.87
2018-09-29T19:35:12.815Z,7.58
2018-09-29T19:37:44.939Z,7.56
2018-09-29T19:40:16.988Z,7.53
2018-09-29T19:42:49.068Z,7.49
2018-09-29T19:45:21.165Z,7.43
2018-09-29T19:47:54.271Z,7.15
2018-09-29T19:50:26.323Z,7.15
2018-09-29T19:52:58.356Z,7.11
2018-09-29T19:55:30.400Z,7.04
2018-09-29T19:58:02.453Z,7.00
2018-09-29T20:00:34.515Z,6.93
2018-09-29T20:03:06.586Z,6.73
2018-09-29T20:05:38.916Z,6.64
2018-09-29T20:08:10.992Z,6.57
2018-09-29T20:10:43.028Z,6.59
2018-09-29T20:13:15.096Z,6.58
2018-09-29T20:15:47.164Z,6.62
2018-09-29T20:18:19.192Z,6.35
2018-09-29T20:20:51.316Z,6.27
2018-09-29T20:23:23.368Z,6.42
2018-09-29T20:25:55.446Z,6.48
2018-09-29T20:28:27.567Z,6.44
2018-09-29T20:30:59.635Z,6.40
2018-09-29T20:33:31.725Z,6.39
2018-09-29T20:36:03.808Z,6.45
2018-09-29T20:38:35.864Z,6.43
2018-09-29T20:41:07.943Z,6.50
2018-09-29T20:43:40.085Z,6.46
2018-09-29T20:46:12.127Z,6.39
2018-09-29T20:48:44.187Z,6.13
2018-09-29T20:51:16.219Z,5.88
2018-09-29T20:53:48.388Z,5.74
2018-09-29T20:56:20.412Z,5.64
2018-09-29T20:58:52.439Z,5.54
2018-09-29T21:01:24.467Z,5.51
2018-09-29T21:03:56.507Z,5.52
2018-09-29T21:06:28.540Z,5.48
2018-09-29T21:09:00.608Z,5.58
2018-09-29T21:11:32.618Z,5.49
2018-09-29T21:14:04.735Z,5.60
2018-09-29T21:16:36.777Z,5.48
2018-09-29T21:19:08.827Z,5.61
2018-09-29T21:21:40.952Z,5.55
2018-09-29T21:24:12.968Z,5.56
2018-09-29T21:26:45.026Z,5.57
2018-09-29T21:29:17.092Z,5.75
2018-09-29T21:31:49.392Z,5.75
2018-09-29T21:34:21.685Z,5.75
2018-09-29T21:36:53.731Z,5.71
2018-09-29T21:39:25.778Z,5.52
2018-09-29T21:41:57.840Z,5.41
2018-09-29T21:44:29.907Z,5.25
2018-09-29T21:47:01.898Z,5.32
2018-09-29T21:49:33.955Z,5.30
2018-09-29T21:52:06.019Z,5.15
2018-09-29T21:54:38.097Z,5.07
2018-09-29T21:57:10.154Z,5.20
2018-09-29T21:59:42.251Z,5.25
2018-09-29T22:02:14.268Z,5.27
2018-09-29T22:04:46.311Z,5.08
2018-09-29T22:07:18.422Z,5.11
2018-09-29T22:09:50.485Z,4.99
2018-09-29T22:12:22.556Z,5.08
2018-09-29T22:14:54.620Z,5.05
2018-09-29T22:17:26.688Z,5.09
2018-09-29T22:19:58.755Z,4.92
2018-09-29T22:22:30.805Z,4.93
2018-09-29T22:25:02.813Z,4.74
2018-09-29T22:27:34.835Z,4.71
2018-09-29T22:30:07.151Z,4.75
2018-09-29T22:32:39.268Z,4.33
2018-09-29T22:35:11.574Z,4.68
2018-09-29T22:37:43.607Z,4.60
2018-09-29T22:40:15.628Z,4.60
2018-09-29T22:42:47.659Z,4.60
2018-09-29T22:45:19.716Z,4.66
2018-09-29T22:47:51.805Z,4.58
2018-09-29T22:50:24.100Z,4.57
2018-09-29T22:52:56.151Z,4.64
2018-09-29T22:55:28.194Z,4.69
2018-09-29T22:58:00.234Z,4.71
2018-09-29T23:00:32.267Z,4.64
2018-09-29T23:03:04.323Z,4.43
2018-09-29T23:05:36.442Z,4.34
2018-09-29T23:08:08.501Z,4.22
2018-09-29T23:10:40.834Z,4.19
2018-09-29T23:13:12.903Z,4.24
2018-09-29T23:15:44.922Z,4.26
2018-09-29T23:18:16.987Z,4.15
2018-09-29T23:20:49.055Z,4.06
2018-09-29T23:23:21.114Z,4.13
2018-09-29T23:25:53.185Z,4.10
2018-09-29T23:28:25.286Z,4.08
2018-09-29T23:30:57.282Z,3.97
2018-09-29T23:33:29.355Z,3.86
2018-09-29T23:36:01.460Z,3.88
2018-09-29T23:38:33.503Z,3.78
2018-09-29T23:41:05.648Z,3.63
2018-09-29T23:43:37.739Z,3.61
2018-09-29T23:46:09.783Z,3.72
2018-09-29T23:48:41.806Z,3.57
2018-09-29T23:51:13.886Z,3.41
2018-09-29T23:53:46.138Z,3.38
2018-09-29T23:56:18.235Z,3.43
2018-09-29T23:58:50.253Z,3.59
